Latest Weather Observations for Moruya Airport

IDN60801

Issued at 2:52 pm EST Thursday 28 May 2020 (issued every 10 minutes, with the page automatically refreshed every 10 minutes)

About weather observations | Map of weather stations | Latest weather observations for NSW | Other Formats
Station Details ID: 069148 Name: MORUYA AIRPORT AWS Lat: -35.90 Lon: 150.14 Height: 4.0 m
Data from the previous 72 hours. | See also: Recent months at Moruya Airport
Date/Time
EST
Temp
°C
App
Temp
°C
Dew
Point
°C
Rel
Hum
%
Delta-T
°C
Wind Press
QNH
hPa
Press
MSL
hPa
Rain since
9am
mm
Dir  Spd
km/h
Gust
km/h
Spd
kts
Gust
kts
28/02:30pm 17.9 15.8 11.2 65 3.6 ESE 13 17 7 9 1020.2 1020.2 0.0
28/02:00pm 17.9 15.3 10.8 63 3.8 ESE 15 20 8 11 1020.1 1020.1 0.0
28/01:30pm 18.3 15.4 11.1 63 3.9 SE 17 22 9 12 1019.9 1019.9 0.0
28/01:00pm 18.1 14.4 9.5 57 4.5 SE 19 24 10 13 1020.1 1020.1 0.0
28/12:30pm 18.3 14.5 9.1 55 4.8 SSE 19 26 10 14 1020.3 1020.3 0.0
28/12:00pm 19.1 15.8 9.6 54 5.0 SE 17 26 9 14 1020.5 1020.5 0.0
28/11:30am 19.1 17.9 11.7 62 4.1 SE 9 15 5 8 1020.6 1020.6 0.0
28/11:00am 18.5 17.2 10.1 58 4.5 SW 7 13 4 7 1020.8 1020.8 0.0
28/10:30am 17.5 15.8 9.9 61 4.0 SW 9 11 5 6 1021.0 1021.0 0.0
28/10:00am 15.4 13.5 10.4 72 2.6 SW 11 15 6 8 1021.0 1021.0 0.0
28/09:30am 13.2 12.1 10.6 84 1.4 SW 7 11 4 6 1021.1 1021.1 0.0
28/09:00am 11.6 10.2 10.8 95 0.4 SW 9 13 5 7 1021.0 1021.0 0.2
28/08:30am 10.7 10.0 10.2 97 0.3 WSW 4 9 2 5 1020.9 1020.9 0.2
28/08:00am 8.4 7.1 7.8 96 0.3 W 4 7 2 4 1020.6 1020.6 0.2
28/07:32am 7.3 5.8 6.7 96 0.3 W 4 7 2 4 1020.3 1020.3 0.2
28/07:30am 7.4 6.3 6.8 96 0.3 W 2 7 1 4 1020.3 1020.3 0.0
28/07:00am 6.7 5.4 6.1 96 0.3 W 2 6 1 3 1020.1 1020.1 0.0
28/06:30am 6.2 4.4 5.6 96 0.3 W 4 7 2 4 1019.8 1019.8 0.0
28/06:03am 6.5 5.6 5.9 96 0.3 CALM 0 0 0 0 1019.5 1019.5 0.0
28/06:00am 6.8 5.9 6.2 96 0.3 CALM 0 0 0 0 1019.5 1019.5 0.0
28/05:54am 7.0 5.8 6.4 96 0.3 W 2 6 1 3 1019.5 1019.5 0.0
28/05:30am 6.8 5.5 6.1 95 0.3 W 2 6 1 3 1019.2 1019.2 0.0
28/05:00am 7.6 6.9 7.0 96 0.3 CALM 0 0 0 0 1019.1 1019.1 0.0
28/04:30am 7.6 6.9 6.9 95 0.3 CALM 0 0 0 0 1019.3 1019.3 0.0
28/04:28am 7.9 7.2 7.1 95 0.4 CALM 0 0 0 0 1019.3 1019.3 0.0
28/04:27am 8.0 7.4 7.2 95 0.4 CALM 0 0 0 0 1019.3 1019.3 0.0
28/04:00am 8.2 7.6 7.4 95 0.4 CALM 0 0 0 0 1019.2 1019.2 0.0
28/03:53am 8.8 8.4 8.2 96 0.3 CALM 0 0 0 0 1019.1 1019.1 0.0
28/03:42am 8.7 8.2 7.9 95 0.4 CALM 0 0 0 0 1019.2 1019.2 0.0
28/03:30am 8.7 8.2 7.9 95 0.4 CALM 0 0 0 0 1019.2 1019.2 0.0
28/03:20am 8.5 8.0 7.7 95 0.4 CALM 0 0 0 0 1019.3 1019.3 0.0
28/03:05am 8.7 8.2 7.9 95 0.4 CALM 0 0 0 0 1019.3 1019.3 0.0
28/03:00am 8.9 8.5 8.1 95 0.4 CALM 0 0 0 0 1019.3 1019.3 0.0
28/02:30am 9.2 8.8 8.4 95 0.4 CALM 0 0 0 0 1019.3 1019.3 0.0
28/02:00am 9.5 8.5 8.7 95 0.4 SW 4 9 2 5 1019.4 1019.4 0.0
28/01:59am 9.5 8.1 8.7 95 0.4 SW 6 9 3 5 1019.4 1019.4 0.0
28/01:30am 9.7 9.5 8.9 95 0.4 CALM 0 0 0 0 1019.6 1019.6 0.0
28/01:00am 9.5 7.9 8.7 95 0.4 W 7 9 4 5 1019.6 1019.6 0.0
28/12:56am 9.7 8.3 8.9 95 0.4 W 6 9 3 5 1019.7 1019.7 0.0
28/12:39am 9.0 7.3 8.2 95 0.4 WSW 7 11 4 6 1019.6 1019.6 0.0
28/12:30am 9.6 8.2 8.8 95 0.4 WNW 6 9 3 5 1019.6 1019.6 0.0
28/12:00am 9.4 9.1 8.6 95 0.4 CALM 0 0 0 0 1019.8 1019.8 0.0
 
Date/Time
EST
Temp
°C
App
Temp
°C
Dew
Point
°C
Rel
Hum
%
Delta-T
°C
Wind Press
QNH
hPa
Press
MSL
hPa
Rain since
9am
mm
Dir  Spd
km/h
Gust
km/h
Spd
kts
Gust
kts
27/11:30pm 9.6 9.3 8.8 95 0.4 CALM 0 0 0 0 1020.0 1020.0 0.0
27/11:00pm 9.5 9.2 8.6 94 0.4 CALM 0 0 0 0 1020.1 1020.1 0.0
27/10:30pm 9.7 9.4 8.8 94 0.4 CALM 0 0 0 0 1020.2 1020.2 0.0
27/10:08pm 10.0 9.8 9.1 94 0.4 CALM 0 0 0 0 1020.4 1020.4 0.0
27/10:00pm 10.1 9.9 9.2 94 0.4 CALM 0 0 0 0 1020.4 1020.4 0.0
27/09:49pm 10.2 10.1 9.3 94 0.4 CALM 0 0 0 0 1020.4 1020.4 0.0
27/09:30pm 10.1 9.9 9.0 93 0.5 CALM 0 0 0 0 1020.7 1020.7 0.0
27/09:00pm 10.7 10.6 9.6 93 0.6 CALM 0 0 0 0 1020.6 1020.6 0.0
27/08:30pm 11.1 11.1 9.9 92 0.6 CALM 0 0 0 0 1020.4 1020.4 0.0
27/08:00pm 11.4 11.5 10.1 92 0.7 CALM 0 0 0 0 1020.4 1020.4 0.0
27/07:30pm 11.4 11.5 10.0 91 0.7 CALM 0 0 0 0 1020.3 1020.3 0.0
27/07:00pm 11.5 11.5 9.9 90 0.8 CALM 0 0 0 0 1020.3 1020.3 0.0
27/06:30pm 11.7 11.7 9.8 88 1.0 CALM 0 0 0 0 1020.3 1020.3 0.0
27/06:00pm 12.7 12.8 10.2 85 1.3 CALM 0 0 0 0 1020.2 1020.2 0.0
27/05:30pm 13.8 12.7 10.6 81 1.7 N 7 11 4 6 1020.1 1020.1 0.0
27/05:00pm 15.3 13.7 11.7 79 1.9 NE 11 13 6 7 1019.9 1019.9 0.0
27/04:30pm 15.5 13.8 11.3 76 2.3 NE 11 15 6 8 1019.8 1019.8 0.0
27/04:00pm 16.4 14.3 11.3 72 2.7 NE 13 17 7 9 1019.6 1019.6 0.0
27/03:30pm 16.9 14.0 11.0 68 3.2 NE 17 19 9 10 1019.5 1019.5 0.0
27/03:00pm 16.8 13.7 11.5 71 2.9 NE 19 22 10 12 1019.6 1019.6 0.0
27/02:30pm 16.7 14.0 11.6 72 2.8 ENE 17 20 9 11 1019.7 1019.7 0.0
27/02:00pm 17.2 14.4 11.2 68 3.2 ENE 17 20 9 11 1019.9 1019.9 0.0
27/01:30pm 16.3 13.8 11.0 71 2.8 ENE 15 17 8 9 1020.2 1020.2 0.0
27/01:00pm 17.3 15.1 10.9 66 3.4 ENE 13 15 7 8 1020.5 1020.5 0.0
27/12:30pm 17.2 15.1 9.9 62 3.8 E 11 13 6 7 1021.0 1021.0 0.0
27/12:00pm 17.3 16.1 10.2 63 3.7 E 7 11 4 6 1021.6 1021.6 0.0
27/11:30am 16.3 14.6 9.9 66 3.4 E 9 11 5 6 1021.9 1021.9 0.0
27/11:00am 17.6 17.2 9.8 60 4.1 ENE 2 7 1 4 1022.5 1022.5 0.0
27/10:30am 15.7 14.8 10.7 72 2.7 ENE 6 9 3 5 1022.9 1022.9 0.0
27/10:00am 15.4 15.9 11.6 78 2.0 CALM 0 6 0 3 1023.1 1023.1 0.0
27/09:30am 12.9 12.1 11.0 88 1.0 SSW 6 7 3 4 1023.1 1023.1 0.0
27/09:00am 12.0 11.1 11.4 96 0.3 WSW 7 9 4 5 1023.1 1023.1 0.8
27/08:30am 11.0 11.2 10.4 96 0.3 CALM 0 0 0 0 1023.2 1023.2 0.8
27/08:00am 8.1 6.4 7.5 96 0.3 WSW 6 7 3 4 1023.1 1023.1 0.8
27/07:42am 7.8 6.4 7.2 96 0.3 W 4 7 2 4 1023.4 1023.4 0.8
27/07:30am 7.5 5.5 6.9 96 0.3 W 7 9 4 5 1023.4 1023.4 0.8
27/07:00am 7.4 4.9 6.7 95 0.3 WSW 9 9 5 5 1023.1 1023.1 0.8
27/06:54am 7.6 5.2 6.9 95 0.3 SW 9 9 5 5 1023.0 1023.0 0.8
27/06:42am 8.2 6.3 7.4 95 0.4 SW 7 9 4 5 1022.9 1022.9 0.8
27/06:30am 8.3 7.0 7.5 95 0.4 WSW 4 7 2 4 1022.9 1022.9 0.8
27/06:00am 8.1 7.5 7.3 95 0.4 CALM 0 0 0 0 1022.7 1022.7 0.8
27/05:30am 7.9 6.8 7.0 94 0.4 W 2 6 1 3 1022.7 1022.7 0.8
27/05:00am 7.8 5.9 6.9 94 0.4 W 6 7 3 4 1022.9 1022.9 0.8
27/04:54am 7.9 6.1 7.0 94 0.4 W 6 7 3 4 1022.9 1022.9 0.8
27/04:52am 8.2 6.4 7.3 94 0.4 W 6 7 3 4 1022.9 1022.9 0.8
27/04:30am 7.7 6.9 6.6 93 0.5 CALM 0 0 0 0 1022.9 1022.9 0.8
27/04:00am 8.4 7.8 7.3 93 0.5 CALM 0 0 0 0 1022.9 1022.9 0.8
27/03:30am 8.1 7.3 6.7 91 0.6 CALM 0 0 0 0 1023.3 1023.3 0.8
27/03:00am 9.2 8.7 7.8 91 0.7 CALM 0 0 0 0 1023.6 1023.6 0.8
27/02:42am 9.6 9.1 8.0 90 0.8 CALM 0 0 0 0 1023.8 1023.8 0.8
27/02:30am 10.1 9.0 8.5 90 0.8 W 4 7 2 4 1023.8 1023.8 0.8
27/02:00am 11.1 9.7 9.5 90 0.8 WSW 7 11 4 6 1023.9 1023.9 0.8
27/01:30am 11.2 9.7 9.3 88 1.0 WSW 7 9 4 5 1024.1 1024.1 0.8
27/01:00am 11.8 11.8 9.9 88 1.0 CALM 0 6 0 3 1024.2 1024.2 0.8
27/12:30am 12.0 10.4 10.2 89 0.9 WSW 9 11 5 6 1024.4 1024.4 0.8
27/12:00am 12.3 10.3 10.2 87 1.1 WSW 11 17 6 9 1024.5 1024.5 0.8
 
Date/Time
EST
Temp
°C
App
Temp
°C
Dew
Point
°C
Rel
Hum
%
Delta-T
°C
Wind Press
QNH
hPa
Press
MSL
hPa
Rain since
9am
mm
Dir  Spd
km/h
Gust
km/h
Spd
kts
Gust
kts
26/11:30pm 12.3 10.4 10.4 88 1.0 W 11 15 6 8 1024.7 1024.7 0.8
26/11:00pm 12.3 10.1 10.9 91 0.7 WSW 13 17 7 9 1024.9 1024.9 0.8
26/10:30pm 11.1 9.3 9.5 90 0.8 WSW 9 11 5 6 1024.8 1024.8 0.8
26/10:00pm 11.9 10.3 10.3 90 0.8 W 9 15 5 8 1024.8 1024.8 0.8
26/09:30pm 11.9 10.8 10.5 91 0.7 W 7 11 4 6 1025.0 1025.0 0.8
26/09:00pm 12.2 11.1 10.8 91 0.7 WSW 7 15 4 8 1025.0 1025.0 0.8
26/08:30pm 11.8 10.2 10.2 90 0.8 SW 9 11 5 6 1025.1 1025.1 0.8
26/08:00pm 12.9 12.0 10.6 86 1.2 WSW 6 7 3 4 1025.0 1025.0 0.8
26/07:30pm 13.6 12.4 11.5 87 1.1 WSW 9 11 5 6 1025.0 1025.0 0.6
26/07:00pm 13.4 12.6 11.6 89 1.0 W 7 13 4 7 1024.8 1024.8 0.6
26/06:30pm 13.6 14.1 11.7 88 1.0 CALM 0 7 0 4 1024.7 1024.7 0.6
26/06:00pm 13.9 14.3 11.4 85 1.3 CALM 0 0 0 0 1024.5 1024.5 0.6
26/05:30pm 14.4 12.8 11.6 83 1.5 SW 11 17 6 9 1024.5 1024.5 0.6
26/05:00pm 15.1 14.5 12.2 83 1.6 SW 7 11 4 6 1024.2 1024.2 0.6
26/04:30pm 16.1 13.7 11.5 74 2.5 SSW 15 20 8 11 1023.8 1023.8 0.4
26/04:00pm 16.4 13.4 11.8 74 2.5 S 19 24 10 13 1023.8 1023.8 0.4
26/03:30pm 16.3 12.9 11.2 72 2.7 S 20 28 11 15 1023.7 1023.7 0.4
26/03:00pm 16.9 13.5 11.2 69 3.1 SSE 20 30 11 16 1023.7 1023.7 0.4
26/02:30pm 16.9 14.0 11.0 68 3.2 S 17 24 9 13 1023.7 1023.7 0.4
26/02:00pm 17.2 14.5 11.7 70 3.0 S 17 24 9 13 1023.9 1023.9 0.4
26/01:30pm 17.2 15.0 12.1 72 2.8 S 15 20 8 11 1024.1 1024.1 0.4
26/01:00pm 16.2 14.4 13.3 83 1.6 S 15 20 8 11 1024.6 1024.6 0.4
26/12:30pm 16.5 14.9 12.8 79 2.1 S 13 20 7 11 1025.1 1025.1 0.2
26/12:00pm 16.6 13.7 12.4 76 2.3 SSW 19 28 10 15 1025.2 1025.2 0.2
26/11:30am 16.3 14.5 13.2 82 1.7 SSW 15 20 8 11 1025.6 1025.6 0.2
26/11:00am 15.4 12.7 12.9 85 1.4 SSW 19 26 10 14 1026.0 1026.0 0.2
26/10:30am 14.0 11.5 12.4 90 0.9 SSW 17 24 9 13 1026.3 1026.3 0.2
26/10:00am 13.7 10.7 12.4 92 0.7 SW 20 28 11 15 1026.2 1026.2 0.2
26/09:30am 13.5 10.5 12.4 93 0.6 SW 20 24 11 13 1026.1 1026.1 0.2
26/09:25am 13.3 10.4 12.2 93 0.6 SW 19 24 10 13 1026.2 1026.2 0.2
26/09:10am 12.6 9.8 11.5 93 0.6 SSW 17 24 9 13 1026.2 1026.2 0.2
26/09:08am 12.6 9.8 11.5 93 0.6 SSW 17 26 9 14 1026.1 1026.1 0.2
26/09:00am 12.6 9.5 11.5 93 0.6 SSW 19 28 10 15 1026.0 1026.0 1.2
26/08:30am 12.4 9.5 11.1 92 0.7 SSW 17 20 9 11 1025.8 1025.8 0.6
26/08:00am 12.4 9.1 10.8 90 0.8 SSW 19 28 10 15 1025.5 1025.5 0.2
26/07:50am 12.5 9.1 10.7 89 0.9 SSW 19 26 10 14 1025.4 1025.4 0.0
26/07:30am 12.6 9.2 10.5 87 1.1 SSW 19 26 10 14 1025.1 1025.1 0.0
26/07:00am 13.3 9.1 9.9 80 1.7 SSW 22 37 12 20 1024.6 1024.6 0.0
26/06:30am 14.3 10.2 8.5 68 2.9 SSW 20 30 11 16 1024.4 1024.4 0.0
26/06:00am 14.4 11.2 8.4 67 3.0 SSW 15 20 8 11 1024.2 1024.2 0.0
26/05:30am 14.4 10.4 8.1 66 3.1 SSW 19 33 10 18 1024.1 1024.1 0.0
26/05:00am 14.2 10.2 8.4 68 2.9 SSW 19 28 10 15 1023.9 1023.9 0.0
26/04:30am 14.4 10.3 7.9 65 3.2 SSW 19 28 10 15 1023.8 1023.8 0.0
26/04:00am 14.3 10.0 7.8 65 3.2 SSW 20 35 11 19 1023.8 1023.8 0.0
26/03:30am 14.2 9.5 7.9 66 3.1 SSW 22 33 12 18 1023.8 1023.8 0.0
26/03:00am 14.0 9.8 8.2 68 2.9 SW 20 32 11 17 1023.9 1023.9 0.0
26/02:30am 13.5 9.0 8.6 72 2.5 SW 22 33 12 18 1024.1 1024.1 0.0
26/02:00am 14.1 9.1 7.9 66 3.1 SW 24 33 13 18 1024.2 1024.2 0.0
26/01:30am 14.3 10.5 7.6 64 3.3 SSW 17 24 9 13 1024.3 1024.3 0.0
26/01:00am 13.9 9.6 7.9 67 3.0 SSW 20 35 11 19 1024.3 1024.3 0.0
26/12:30am 14.3 9.8 7.1 62 3.5 SSW 20 28 11 15 1024.2 1024.2 0.0
26/12:00am 14.2 9.7 7.0 62 3.5 SSW 20 30 11 16 1024.2 1024.2 0.0
 
Date/Time
EST
Temp
°C
App
Temp
°C
Dew
Point
°C
Rel
Hum
%
Delta-T
°C
Wind Press
QNH
hPa
Press
MSL
hPa
Rain since
9am
mm
Dir  Spd
km/h
Gust
km/h
Spd
kts
Gust
kts
25/11:30pm 14.3 9.8 6.9 61 3.6 SSW 20 26 11 14 1024.1 1024.1 0.0
25/11:00pm 14.0 9.5 6.8 62 3.5 SW 20 28 11 15 1024.1 1024.1 0.0
25/10:30pm 14.2 9.3 7.0 62 3.5 SW 22 28 12 15 1024.2 1024.2 0.0
25/10:00pm 14.3 9.5 7.4 63 3.4 SSW 22 32 12 17 1024.2 1024.2 0.0
25/09:30pm 14.2 9.0 7.3 63 3.4 SW 24 35 13 19 1024.0 1024.0 0.0
25/09:00pm 14.4 9.6 7.5 63 3.4 SW 22 30 12 16 1024.1 1024.1 0.0
25/08:30pm 14.5 9.7 7.5 63 3.5 SSW 22 30 12 16 1024.0 1024.0 0.0
25/08:00pm 14.6 9.5 7.6 63 3.4 SSW 24 37 13 20 1023.6 1023.6 0.0
25/07:30pm 14.4 10.1 7.7 64 3.3 SW 20 26 11 14 1023.2 1023.2 0.0
25/07:00pm 14.5 9.8 7.8 64 3.3 SW 22 30 12 16 1023.1 1023.1 0.0
25/06:30pm 14.5 9.8 7.8 64 3.3 SSW 22 30 12 16 1022.8 1022.8 0.0
25/06:00pm 14.6 9.6 7.9 64 3.3 SSW 24 37 13 20 1022.5 1022.5 0.0
25/05:30pm 14.8 10.6 7.6 62 3.6 SSW 19 30 10 16 1022.0 1022.0 0.0
25/05:00pm 14.9 10.6 7.7 62 3.6 SSW 20 33 11 18 1021.9 1021.9 0.0
25/04:30pm 15.2 11.0 8.2 63 3.5 SSW 20 30 11 16 1021.6 1021.6 0.0
25/04:00pm 15.4 10.5 8.4 63 3.5 SSW 24 32 13 17 1021.5 1021.5 0.0
25/03:30pm 15.3 10.0 8.5 64 3.4 SSW 26 39 14 21 1021.4 1021.4 0.0
25/03:00pm 15.4 9.4 8.6 64 3.4 SSW 30 44 16 24 1021.3 1021.3 0.0

Other formats

Comma delimited format used in spreadsheet applications
http://www.bom.gov.au/fwo/IDN60801/IDN60801.95937.axf

JavaScript Object Notation format (JSON) in row-major order
http://www.bom.gov.au/fwo/IDN60801/IDN60801.95937.json

Data quality

Most of these data are generated automatically and are frequently updated. Quality checks on data are not normally performed. It is possible for incorrect values to appear. Refer to information at About Latest Weather Observations and please check the disclaimer before using these data.